Grande Europa — ICGE — position and weather

sailwx.info

Track history (hours):
 
Tides and Currents Weather Stations Pressure Air Temp Water Temp Dewpoint Dewpoint Depression Visibility Wind Speed Wind Dir Waves Ship Positions

Grande Europa

Last reported at 2017-Jan-20 19:32 UTC. Time now 2017-Jan-20 20:12 UTC.
Position N 51°16' E 004°13'.

Length 183 m; draft 7.7 m.

Type: Cargo ship. MMSI: 247206000.

Date/timePositionNaut miles runAvg speedWind from/ knotsBaromVisibWave heightAir tempDewpointWater temp
2017-Jan-20 19:32N 51°16' E 004°13'0 0.0
2017-Jan-20 18:32N 51°16' E 004°13'0 0.0
2017-Jan-20 17:32N 51°16' E 004°13'0 0.0
2017-Jan-20 16:29N 51°16' E 004°13'0 0.0
2017-Jan-20 15:32N 51°16' E 004°13'0 0.0
2017-Jan-20 14:32N 51°16' E 004°13'0 0.0
2017-Jan-20 13:32N 51°16' E 004°13'0 0.0
2017-Jan-20 12:32N 51°16' E 004°13'0 0.0
2017-Jan-20 11:32N 51°16' E 004°13'1 1.3
2017-Jan-20 10:33N 51°17' E 004°15'0 0.2
2017-Jan-20 09:33N 51°17' E 004°15'6 5.7
2017-Jan-20 08:33N 51°22' E 004°13'10 9.9
2017-Jan-20 07:33N 51°24' E 003°57'1212.2
2017-Jan-20 06:33N 51°26' E 003°38'1515.1
2017-Jan-20 05:33N 51°24' E 003°14'1817.9
2017-Jan-20 04:33N 51°22' E 002°46'1514.7
2017-Jan-20 03:33N 51°20' E 002°22'1716.9
2017-Jan-20 02:33N 51°11' E 001°59'1615.8
2017-Jan-20 01:33N 51°02' E 001°39'1515.2
2017-Jan-20 00:33N 50°49' E 001°26'1615.7
2017-Jan-19 23:33N 50°37' E 001°10'1716.2
2017-Jan-19 22:29N 50°28' E 000°47'1516.6
2017-Jan-19 21:33N 50°24' E 000°24'1616.3
2017-Jan-19 20:33N 50°19' W 000°01'1715.8
2017-Jan-19 19:28N 50°15' W 000°27'1415.3
2017-Jan-19 18:33N 50°11' W 000°48'1515.0
2017-Jan-19 17:33N 50°07' W 001°10'1515.4
2017-Jan-19 16:34N 50°03' W 001°33'1616.3
2017-Jan-19 15:33N 49°58' W 001°58'1817.3
2017-Jan-19 14:30N 49°54' W 002°25'1717.7
2017-Jan-19 13:34N 49°50' W 002°50'1717.3
2017-Jan-19 12:34N 49°50' W 003°17'1817.6
2017-Jan-19 11:34N 49°50' W 003°44'1817.5
2017-Jan-19 10:33N 49°51' W 004°12'1817.7
2017-Jan-19 09:34N 49°52' W 004°39'1916.9
2017-Jan-19 08:25N 49°52' W 005°09'1517.2
2017-Jan-19 07:34N 49°52' W 005°32'1817.9
2017-Jan-19 06:33N 49°54' W 005°60'1717.5
2017-Jan-19 05:33N 50°11' W 006°02'3517.3
2017-Jan-19 03:31N 50°41' W 006°33'4218.2
2017-Jan-19 01:13N 51°11' W 007°19'1218.3
2017-Jan-19 00:33N 51°19' W 007°33'1818.5
2017-Jan-18 23:34N 51°32' W 007°54'1818.4
2017-Jan-18 22:33N 51°45' W 008°15'6 5.3
2017-Jan-18 21:31N 51°50' W 008°20'0 0.0
2017-Jan-18 20:33N 51°50' W 008°20'0 0.0
2017-Jan-18 19:33N 51°50' W 008°20'0 0.0
2017-Jan-18 18:33N 51°50' W 008°20'0 0.0
2017-Jan-18 17:33N 51°50' W 008°20'0 0.0
2017-Jan-18 16:33N 51°50' W 008°20'0 0.0
2017-Jan-18 15:33N 51°50' W 008°20'0 0.0
2017-Jan-18 14:33N 51°50' W 008°20'0 0.0
2017-Jan-18 13:33N 51°50' W 008°20'0 0.0
2017-Jan-18 12:33N 51°50' W 008°20'0 0.0
2017-Jan-18 11:33N 51°50' W 008°20'0 0.0
2017-Jan-18 10:33N 51°50' W 008°20'0 0.0
2017-Jan-18 09:33N 51°50' W 008°20'0 0.0
2017-Jan-18 08:33N 51°50' W 008°20'0 0.0
2017-Jan-18 07:33N 51°50' W 008°20'0 0.0
2017-Jan-18 06:33N 51°50' W 008°20'0 0.0
2017-Jan-18 05:33N 51°50' W 008°20'0 0.0
2017-Jan-18 04:33N 51°50' W 008°20'0 0.0
2017-Jan-18 03:33N 51°50' W 008°20'0 0.0
2017-Jan-18 02:33N 51°50' W 008°20'0 0.0
2017-Jan-18 01:33N 51°50' W 008°20'2 2.5
2017-Jan-18 00:33N 51°51' W 008°16'1211.6
2017-Jan-17 23:34N 51°44' W 008°00'1918.4
2017-Jan-17 22:33N 51°42' W 007°30'8917.9
2017-Jan-17 17:33N 51°29' W 005°08'1817.3
2017-Jan-17 16:30N 51°27' W 004°39'2218.4
2017-Jan-17 15:19N 51°24' W 004°05'1920.0
2017-Jan-17 14:22N 51°21' W 003°34'1518.3
2017-Jan-17 13:34N 51°22' W 003°11'1818.4
2017-Jan-17 12:33N 51°30' W 002°44'1 1.0
2017-Jan-17 11:31N 51°30' W 002°43'0 0.0
2017-Jan-17 10:31N 51°30' W 002°43'0 0.0
2017-Jan-17 09:31N 51°30' W 002°43'0 0.0
2017-Jan-17 08:31N 51°30' W 002°43'0 0.0
2017-Jan-17 07:31N 51°30' W 002°43'0 0.0
2017-Jan-17 06:31N 51°30' W 002°43'0 0.0
2017-Jan-17 05:31N 51°30' W 002°43'0 0.0
2017-Jan-17 04:31N 51°30' W 002°43'0 0.0
2017-Jan-17 03:31N 51°30' W 002°43'0 0.0
2017-Jan-17 02:31N 51°30' W 002°43'0 0.0
2017-Jan-17 01:31N 51°30' W 002°43'0 0.0
2017-Jan-17 00:31N 51°30' W 002°43'0 0.0
2017-Jan-16 23:31N 51°30' W 002°43'0 0.0
2017-Jan-16 22:31N 51°30' W 002°43'0 0.0
2017-Jan-16 21:31N 51°30' W 002°43'0 0.0
2017-Jan-16 20:31N 51°30' W 002°43'0 0.0
2017-Jan-16 19:31N 51°30' W 002°43'0 0.0
2017-Jan-16 18:31N 51°30' W 002°43'0 0.0
2017-Jan-16 17:31N 51°30' W 002°43'0 0.0
2017-Jan-16 16:31N 51°30' W 002°43'0 0.0
2017-Jan-16 15:31N 51°30' W 002°43'0 0.0
2017-Jan-16 14:31N 51°30' W 002°43'0 0.0
2017-Jan-16 13:31N 51°30' W 002°43'0 0.0
2017-Jan-16 12:31N 51°30' W 002°43'0 0.0
2017-Jan-16 11:31N 51°30' W 002°43'0 0.0
2017-Jan-16 10:31N 51°30' W 002°43'0 0.0
2017-Jan-16 09:31N 51°30' W 002°43'0 0.1
2017-Jan-16 08:33N 51°30' W 002°43'1 0.9
2017-Jan-16 07:34N 51°31' W 002°44'1212.4
2017-Jan-16 06:34N 51°25' W 003°02'2118.2
2017-Jan-16 05:24N 51°20' W 003°34'1516.6
2017-Jan-16 04:30N 51°17' W 003°58'1415.2
2017-Jan-16 03:33N 51°16' W 004°21'1515.4
2017-Jan-16 02:34N 51°05' W 004°37'1615.5
2017-Jan-16 01:33N 50°54' W 004°55'1212.5
2017-Jan-16 00:33N 50°45' W 005°09'7 7.2
2017-Jan-15 23:33N 50°40' W 005°17'7 7.3
2017-Jan-15 22:33N 50°35' W 005°26'8 7.7
2017-Jan-15 21:33N 50°30' W 005°35'1414.4
2017-Jan-15 20:33N 50°21' W 005°52'1815.3
2017-Jan-15 19:24N 50°03' W 005°53'66315.0
2017-Jan-13 23:17N 39°22' W 009°50'1013.6
2017-Jan-13 22:33N 39°12' W 009°50'1313.0
2017-Jan-13 21:33N 38°59' W 009°50'1313.3
2017-Jan-13 20:33N 38°46' W 009°49'1312.9
2017-Jan-13 19:33N 38°34' W 009°43'1615.5
2017-Jan-13 18:33N 38°25' W 009°27'1515.1
2017-Jan-13 17:34N 38°21' W 009°09'1515.0
2017-Jan-13 16:32N 38°31' W 008°54'1 0.7
2017-Jan-13 15:31N 38°31' W 008°53'0 0.0
2017-Jan-13 14:31N 38°31' W 008°53'0 0.0
2017-Jan-13 13:31N 38°31' W 008°53'0 0.0
2017-Jan-13 12:31N 38°31' W 008°53'0 0.0
2017-Jan-13 11:28N 38°31' W 008°53'0 0.0
2017-Jan-13 10:31N 38°31' W 008°53'0 0.0
2017-Jan-13 09:28N 38°31' W 008°53'0 0.0
2017-Jan-13 08:33N 38°31' W 008°53'0 0.0
2017-Jan-13 07:33N 38°31' W 008°53'0 0.1
2017-Jan-13 06:33N 38°31' W 008°53'7 7.1
2017-Jan-13 05:33N 38°26' W 008°60'1414.1
2017-Jan-13 04:33N 38°13' W 009°04'1616.2
2017-Jan-13 03:33N 37°57' W 009°08'1515.3
2017-Jan-13 02:33N 37°42' W 009°05'1714.1
2017-Jan-13 01:22N 37°27' W 009°15'19614.1
2017-Jan-12 11:26N 35°58' W 005°37'1718.9
2017-Jan-12 10:33N 36°03' W 005°18'11518.8
2017-Jan-12 04:26N 36°20' W 002°57'1818.0
2017-Jan-12 03:26N 36°22' W 002°35'9618.4
2017-Jan-11 22:13N 36°45' W 000°39'45717.8
2017-Jan-10 20:29N 38°44' E 008°40'1819.0
2017-Jan-10 19:33N 38°49' E 009°01'  
Track history (hours):
 
Tides and Currents Weather Stations Pressure Air Temp Water Temp Dewpoint Dewpoint Depression Visibility Wind Speed Wind Dir Waves Ship Positions

Grande Europa

Last reported at 2017-Jan-20 19:32 UTC. Time now 2017-Jan-20 20:12 UTC.
Position N 51°16' E 004°13'.

Length 183 m; draft 7.7 m.

Type: Cargo ship. MMSI: 247206000.

Date/timePositionNaut miles runAvg speedWind from/ knotsBaromVisibWave heightAir tempDewpointWater temp
2017-Jan-20 19:32N 51°16' E 004°13'0 0.0
2017-Jan-20 18:32N 51°16' E 004°13'0 0.0
2017-Jan-20 17:32N 51°16' E 004°13'0 0.0
2017-Jan-20 16:29N 51°16' E 004°13'0 0.0
2017-Jan-20 15:32N 51°16' E 004°13'0 0.0
2017-Jan-20 14:32N 51°16' E 004°13'0 0.0
2017-Jan-20 13:32N 51°16' E 004°13'0 0.0
2017-Jan-20 12:32N 51°16' E 004°13'0 0.0
2017-Jan-20 11:32N 51°16' E 004°13'1 1.3
2017-Jan-20 10:33N 51°17' E 004°15'0 0.2
2017-Jan-20 09:33N 51°17' E 004°15'6 5.7
2017-Jan-20 08:33N 51°22' E 004°13'10 9.9
2017-Jan-20 07:33N 51°24' E 003°57'1212.2
2017-Jan-20 06:33N 51°26' E 003°38'1515.1
2017-Jan-20 05:33N 51°24' E 003°14'1817.9
2017-Jan-20 04:33N 51°22' E 002°46'1514.7
2017-Jan-20 03:33N 51°20' E 002°22'1716.9
2017-Jan-20 02:33N 51°11' E 001°59'1615.8
2017-Jan-20 01:33N 51°02' E 001°39'1515.2
2017-Jan-20 00:33N 50°49' E 001°26'1615.7
2017-Jan-19 23:33N 50°37' E 001°10'1716.2
2017-Jan-19 22:29N 50°28' E 000°47'1516.6
2017-Jan-19 21:33N 50°24' E 000°24'1616.3
2017-Jan-19 20:33N 50°19' W 000°01'1715.8
2017-Jan-19 19:28N 50°15' W 000°27'1415.3
2017-Jan-19 18:33N 50°11' W 000°48'1515.0
2017-Jan-19 17:33N 50°07' W 001°10'1515.4
2017-Jan-19 16:34N 50°03' W 001°33'1616.3
2017-Jan-19 15:33N 49°58' W 001°58'1817.3
2017-Jan-19 14:30N 49°54' W 002°25'1717.7
2017-Jan-19 13:34N 49°50' W 002°50'1717.3
2017-Jan-19 12:34N 49°50' W 003°17'1817.6
2017-Jan-19 11:34N 49°50' W 003°44'1817.5
2017-Jan-19 10:33N 49°51' W 004°12'1817.7
2017-Jan-19 09:34N 49°52' W 004°39'1916.9
2017-Jan-19 08:25N 49°52' W 005°09'1517.2
2017-Jan-19 07:34N 49°52' W 005°32'1817.9
2017-Jan-19 06:33N 49°54' W 005°60'1717.5
2017-Jan-19 05:33N 50°11' W 006°02'3517.3
2017-Jan-19 03:31N 50°41' W 006°33'4218.2
2017-Jan-19 01:13N 51°11' W 007°19'1218.3
2017-Jan-19 00:33N 51°19' W 007°33'1818.5
2017-Jan-18 23:34N 51°32' W 007°54'1818.4
2017-Jan-18 22:33N 51°45' W 008°15'6 5.3
2017-Jan-18 21:31N 51°50' W 008°20'0 0.0
2017-Jan-18 20:33N 51°50' W 008°20'0 0.0
2017-Jan-18 19:33N 51°50' W 008°20'0 0.0
2017-Jan-18 18:33N 51°50' W 008°20'0 0.0
2017-Jan-18 17:33N 51°50' W 008°20'0 0.0
2017-Jan-18 16:33N 51°50' W 008°20'0 0.0
2017-Jan-18 15:33N 51°50' W 008°20'0 0.0
2017-Jan-18 14:33N 51°50' W 008°20'0 0.0
2017-Jan-18 13:33N 51°50' W 008°20'0 0.0
2017-Jan-18 12:33N 51°50' W 008°20'0 0.0
2017-Jan-18 11:33N 51°50' W 008°20'0 0.0
2017-Jan-18 10:33N 51°50' W 008°20'0 0.0
2017-Jan-18 09:33N 51°50' W 008°20'0 0.0
2017-Jan-18 08:33N 51°50' W 008°20'0 0.0
2017-Jan-18 07:33N 51°50' W 008°20'0 0.0
2017-Jan-18 06:33N 51°50' W 008°20'0 0.0
2017-Jan-18 05:33N 51°50' W 008°20'0 0.0
2017-Jan-18 04:33N 51°50' W 008°20'0 0.0
2017-Jan-18 03:33N 51°50' W 008°20'0 0.0
2017-Jan-18 02:33N 51°50' W 008°20'0 0.0
2017-Jan-18 01:33N 51°50' W 008°20'2 2.5
2017-Jan-18 00:33N 51°51' W 008°16'1211.6
2017-Jan-17 23:34N 51°44' W 008°00'1918.4
2017-Jan-17 22:33N 51°42' W 007°30'8917.9
2017-Jan-17 17:33N 51°29' W 005°08'1817.3
2017-Jan-17 16:30N 51°27' W 004°39'2218.4
2017-Jan-17 15:19N 51°24' W 004°05'1920.0
2017-Jan-17 14:22N 51°21' W 003°34'1518.3
2017-Jan-17 13:34N 51°22' W 003°11'1818.4
2017-Jan-17 12:33N 51°30' W 002°44'1 1.0
2017-Jan-17 11:31N 51°30' W 002°43'0 0.0
2017-Jan-17 10:31N 51°30' W 002°43'0 0.0
2017-Jan-17 09:31N 51°30' W 002°43'0 0.0
2017-Jan-17 08:31N 51°30' W 002°43'0 0.0
2017-Jan-17 07:31N 51°30' W 002°43'0 0.0
2017-Jan-17 06:31N 51°30' W 002°43'0 0.0
2017-Jan-17 05:31N 51°30' W 002°43'0 0.0
2017-Jan-17 04:31N 51°30' W 002°43'0 0.0
2017-Jan-17 03:31N 51°30' W 002°43'0 0.0
2017-Jan-17 02:31N 51°30' W 002°43'0 0.0
2017-Jan-17 01:31N 51°30' W 002°43'0 0.0
2017-Jan-17 00:31N 51°30' W 002°43'0 0.0
2017-Jan-16 23:31N 51°30' W 002°43'0 0.0
2017-Jan-16 22:31N 51°30' W 002°43'0 0.0
2017-Jan-16 21:31N 51°30' W 002°43'0 0.0
2017-Jan-16 20:31N 51°30' W 002°43'0 0.0
2017-Jan-16 19:31N 51°30' W 002°43'0 0.0
2017-Jan-16 18:31N 51°30' W 002°43'0 0.0
2017-Jan-16 17:31N 51°30' W 002°43'0 0.0
2017-Jan-16 16:31N 51°30' W 002°43'0 0.0
2017-Jan-16 15:31N 51°30' W 002°43'0 0.0
2017-Jan-16 14:31N 51°30' W 002°43'0 0.0
2017-Jan-16 13:31N 51°30' W 002°43'0 0.0
2017-Jan-16 12:31N 51°30' W 002°43'0 0.0
2017-Jan-16 11:31N 51°30' W 002°43'0 0.0
2017-Jan-16 10:31N 51°30' W 002°43'0 0.0
2017-Jan-16 09:31N 51°30' W 002°43'0 0.1
2017-Jan-16 08:33N 51°30' W 002°43'1 0.9
2017-Jan-16 07:34N 51°31' W 002°44'1212.4
2017-Jan-16 06:34N 51°25' W 003°02'2118.2
2017-Jan-16 05:24N 51°20' W 003°34'1516.6
2017-Jan-16 04:30N 51°17' W 003°58'1415.2
2017-Jan-16 03:33N 51°16' W 004°21'1515.4
2017-Jan-16 02:34N 51°05' W 004°37'1615.5
2017-Jan-16 01:33N 50°54' W 004°55'1212.5
2017-Jan-16 00:33N 50°45' W 005°09'7 7.2
2017-Jan-15 23:33N 50°40' W 005°17'7 7.3
2017-Jan-15 22:33N 50°35' W 005°26'8 7.7
2017-Jan-15 21:33N 50°30' W 005°35'1414.4
2017-Jan-15 20:33N 50°21' W 005°52'1815.3
2017-Jan-15 19:24N 50°03' W 005°53'66315.0
2017-Jan-13 23:17N 39°22' W 009°50'1013.6
2017-Jan-13 22:33N 39°12' W 009°50'1313.0
2017-Jan-13 21:33N 38°59' W 009°50'1313.3
2017-Jan-13 20:33N 38°46' W 009°49'1312.9
2017-Jan-13 19:33N 38°34' W 009°43'1615.5
2017-Jan-13 18:33N 38°25' W 009°27'1515.1
2017-Jan-13 17:34N 38°21' W 009°09'1515.0
2017-Jan-13 16:32N 38°31' W 008°54'1 0.7
2017-Jan-13 15:31N 38°31' W 008°53'0 0.0
2017-Jan-13 14:31N 38°31' W 008°53'0 0.0
2017-Jan-13 13:31N 38°31' W 008°53'0 0.0
2017-Jan-13 12:31N 38°31' W 008°53'0 0.0
2017-Jan-13 11:28N 38°31' W 008°53'0 0.0
2017-Jan-13 10:31N 38°31' W 008°53'0 0.0
2017-Jan-13 09:28N 38°31' W 008°53'0 0.0
2017-Jan-13 08:33N 38°31' W 008°53'0 0.0
2017-Jan-13 07:33N 38°31' W 008°53'0 0.1
2017-Jan-13 06:33N 38°31' W 008°53'7 7.1
2017-Jan-13 05:33N 38°26' W 008°60'1414.1
2017-Jan-13 04:33N 38°13' W 009°04'1616.2
2017-Jan-13 03:33N 37°57' W 009°08'1515.3
2017-Jan-13 02:33N 37°42' W 009°05'1714.1
2017-Jan-13 01:22N 37°27' W 009°15'19614.1
2017-Jan-12 11:26N 35°58' W 005°37'1718.9
2017-Jan-12 10:33N 36°03' W 005°18'11518.8
2017-Jan-12 04:26N 36°20' W 002°57'1818.0
2017-Jan-12 03:26N 36°22' W 002°35'9618.4
2017-Jan-11 22:13N 36°45' W 000°39'45717.8
2017-Jan-10 20:29N 38°44' E 008°40'1819.0
2017-Jan-10 19:33N 38°49' E 009°01'  

Dump ship's entire track history